Azamara Quest — 9HOM8 — position and weather

sailwx.info

Track history (hours):
 
Tides and Currents Weather Stations Pressure Air Temp Water Temp Dewpoint Dewpoint Depression Visibility Wind Speed Wind Dir Waves Ship Positions

Azamara Quest

Last reported at 2019-Jul-19 07:00 UTC. Time now 2019-Jul-20 01:03 UTC.
Position N 58°30' W 137°48'.

Length 181 m; draft 5.9 m.

Type: Passenger vessel. MMSI: 256216000.

Wind from 140 at 9 knots

Barometer 1015.0 mb
Air temperature 15.0 ° C
Visibility: greater than 5.4 NM
Dewpoint 11.3 ° C
Water temperature 12.0 ° C

Date/timePositionNaut miles runAvg speedWind from/ knotsBaromVisibWave heightAir tempDewpointWater temp
2019-Jul-19 07:00N 58°30' W 137°48'4815.9 140 / 91015.0 5.4 15.011.312.0
2019-Jul-19 04:00N 58°12' W 136°24'926.1 090 / 21014.0 0.1 15.0
2019-Jul-19 03:38N 58°19' W 136°12'320.2
2019-Jul-19 03:30N 58°19' W 136°07'918.8
2019-Jul-19 03:00N 58°18' W 135°49'1218.5
2019-Jul-19 02:23N 58°14' W 135°29'613.3
2019-Jul-19 01:58N 58°08' W 135°27'1 0.1
2019-Jul-18 15:06N 58°09' W 135°26'1 7.6
2019-Jul-18 15:00N 58°09' W 135°25'4290.4
2019-Jul-18 15:00N 58°06' W 135°24'34 3.1 120 / 41006.0 2.2 14.0
2019-Jul-18 04:00N 58°18' W 134°24'36 2.1 110 / 121000.0 2.2 16.0
2019-Jul-17 10:44N 58°14' W 135°32'416.9
2019-Jul-17 10:30N 58°16' W 135°39'713.9
2019-Jul-17 10:00N 58°19' W 135°51'713.7
2019-Jul-17 09:30N 58°20' W 136°04'5014.1
2019-Jul-17 06:00N 57°36' W 136°48'54 3.9 160 / 121003.010.8 14.010.211.0
2019-Jul-16 16:00N 57°06' W 135°24'81 9.0 340 / 21012.0 1.1 14.0
2019-Jul-16 07:00N 55°54' W 134°18'4414.6 120 / 61017.010.8 15.013.212.0
2019-Jul-16 04:00N 56°18' W 133°12'21 1.5 150 / 71017.0 0.5 15.0
2019-Jul-15 14:00N 56°12' W 132°36'57 8.1 220 / 51019.0 2.2 16.0
2019-Jul-15 07:00N 55°24' W 131°42'18 1.1 140 / 61019.010.8 17.011.512.0
2019-Jul-14 14:00N 55°06' W 131°36'2612.0 160 / 61017.0 2.2 15.0
2019-Jul-14 11:49N 54°40' W 131°31'713.1
2019-Jul-14 11:19N 54°34' W 131°26'412.4
2019-Jul-14 11:00N 54°31' W 131°22'612.9
2019-Jul-14 10:30N 54°25' W 131°17'612.9
2019-Jul-14 10:00N 54°20' W 131°11'713.4
2019-Jul-14 09:30N 54°15' W 131°04'612.6
2019-Jul-14 09:01N 54°09' W 131°00'510.2
2019-Jul-14 08:30N 54°04' W 131°00'612.9
2019-Jul-14 08:00N 53°57' W 130°59'713.1
2019-Jul-14 07:31N 53°51' W 130°57'713.5
2019-Jul-14 07:00N 53°44' W 130°55'613.1
2019-Jul-14 06:31N 53°38' W 130°52'913.6
2019-Jul-14 05:49N 53°29' W 130°48'713.3
2019-Jul-14 05:17N 53°22' W 130°44'713.6
2019-Jul-14 04:46N 53°16' W 130°38'5815.5
2019-Jul-14 01:00N 52°24' W 129°54'2212.7 200 / 61017.010.8 18.0
2019-Jul-13 23:13N 52°07' W 129°30'414.5
2019-Jul-13 22:58N 52°04' W 129°26'715.3
2019-Jul-13 22:30N 51°59' W 129°18'815.1
2019-Jul-13 22:00N 51°53' W 129°11'714.4
2019-Jul-13 21:30N 51°48' W 129°03'714.3
2019-Jul-13 21:00N 51°42' W 128°56'714.1
2019-Jul-13 20:30N 51°36' W 128°51'714.0
2019-Jul-13 20:01N 51°29' W 128°48'714.7
2019-Jul-13 19:30N 51°23' W 128°41'714.7
2019-Jul-13 19:01N 51°18' W 128°32'815.0
2019-Jul-13 18:30N 51°14' W 128°22'815.0
2019-Jul-13 18:00N 51°09' W 128°12'5329.6
2019-Jul-13 18:00N 51°06' W 128°06'2 4.5 290 / 61016.010.8 18.012.712.0
2019-Jul-13 17:30N 51°05' W 128°03'714.5
2019-Jul-13 17:00N 51°01' W 127°53'713.0
2019-Jul-13 16:30N 50°58' W 127°45'713.3
2019-Jul-13 15:59N 50°53' W 127°36'2222.2
2019-Jul-13 15:00N 50°42' W 127°06'6 7.5 200 / 51017.0 2.2 15.0
2019-Jul-13 14:12N 50°42' W 126°57'4914.7
2019-Jul-13 10:52N 50°22' W 125°46'1315.5
2019-Jul-13 10:02N 50°20' W 125°26'212.3
2019-Jul-13 09:52N 50°18' W 125°25'615.3
2019-Jul-13 09:29N 50°13' W 125°22'613.0
2019-Jul-13 09:00N 50°07' W 125°19'612.8
2019-Jul-13 08:31N 50°02' W 125°13'5 9.9
2019-Jul-13 08:00N 49°57' W 125°09'5 9.1
2019-Jul-13 07:31N 49°54' W 125°04'611.1
2019-Jul-13 07:00N 49°51' W 124°56'6438.2
2019-Jul-13 07:00N 49°48' W 124°48'1 2.5 300 / 111015.010.8 18.012.713.0
2019-Jul-13 06:30N 49°48' W 124°50'511.0
2019-Jul-13 06:01N 49°44' W 124°44'610.8
2019-Jul-13 05:30N 49°40' W 124°37'510.6
2019-Jul-13 05:00N 49°37' W 124°31'4649.5
2019-Jul-13 05:00N 49°36' W 124°36'917.3 100 / 61015.010.8 20.014.913.0
2019-Jul-13 04:30N 49°34' W 124°23'1011.1
2019-Jul-13 03:37N 49°30' W 124°10'110.6
2019-Jul-13 03:30N 49°29' W 124°08'611.5
2019-Jul-13 03:01N 49°27' W 124°00'611.7
2019-Jul-13 02:30N 49°25' W 123°52'612.2
2019-Jul-13 02:00N 49°23' W 123°43'612.2
2019-Jul-13 01:30N 49°21' W 123°34'612.2
2019-Jul-13 01:00N 49°19' W 123°25'5335.4
2019-Jul-13 01:00N 49°18' W 123°18'2 3.9 320 / 41016.010.8 20.0
2019-Jul-13 00:31N 49°19' W 123°16'612.2
2019-Jul-13 00:00N 49°18' W 123°07'1 1.6
2019-Jul-12 23:30N 49°17' W 123°06'0 0.1
2019-Jul-12 23:00N 49°17' W 123°06'0 0.0
2019-Jul-12 22:30N 49°17' W 123°06'0 0.0
2019-Jul-12 22:00N 49°17' W 123°06'0 0.1
2019-Jul-12 21:30N 49°17' W 123°06'0 0.0
2019-Jul-12 21:00N 49°17' W 123°06'0 0.0
2019-Jul-12 20:30N 49°17' W 123°06'0 0.0
2019-Jul-12 20:00N 49°17' W 123°06'0 0.0
2019-Jul-12 19:30N 49°17' W 123°06'0 0.0
2019-Jul-12 19:00N 49°17' W 123°06'0 0.0
2019-Jul-12 18:30N 49°17' W 123°06'0 0.0
2019-Jul-12 18:00N 49°17' W 123°06'0 0.0
2019-Jul-12 17:30N 49°17' W 123°06'0 0.0
2019-Jul-12 16:57N 49°17' W 123°06'0 0.0
2019-Jul-12 16:30N 49°17' W 123°06'0 0.0
2019-Jul-12 16:00N 49°17' W 123°06'0 0.0
2019-Jul-12 15:30N 49°17' W 123°06'0 0.0
2019-Jul-12 15:00N 49°17' W 123°06'0 0.0
2019-Jul-12 14:30N 49°17' W 123°06'0 0.0
2019-Jul-12 14:00N 49°17' W 123°06'0 0.0
2019-Jul-12 13:30N 49°17' W 123°06'2 4.0
2019-Jul-12 13:00N 49°19' W 123°08'4 8.7
2019-Jul-12 12:31N 49°19' W 123°15'510.7
2019-Jul-12 12:01N 49°19' W 123°23'510.3
2019-Jul-12 11:30N 49°19' W 123°31'5 9.4
2019-Jul-12 11:00N 49°19' W 123°38'5 9.4
2019-Jul-12 10:31N 49°19' W 123°46'5 9.1
2019-Jul-12 10:00N 49°21' W 123°52'1 2.6
2019-Jul-12 09:30N 49°21' W 123°50'4 7.2
2019-Jul-12 09:00N 49°22' W 123°55'3 5.2
2019-Jul-12 08:30N 49°22' W 123°59'3 5.9
2019-Jul-12 08:00N 49°22' W 123°55'3 6.4
2019-Jul-12 07:30N 49°21' W 123°50'4 8.4
2019-Jul-12 07:00N 49°17' W 123°52'4 8.6
2019-Jul-12 06:31N 49°12' W 123°53'3 6.2
2019-Jul-12 06:01N 49°10' W 123°55'4 1.3
2019-Jul-12 03:00N 49°06' W 123°54'4 0.7 160 / 61019.010.8 17.0
2019-Jul-11 21:08N 49°10' W 123°55'0 0.0
2019-Jul-11 20:56N 49°10' W 123°55'0 1.1
2019-Jul-11 20:30N 49°10' W 123°55'4 8.0
2019-Jul-11 20:00N 49°14' W 123°55'612.5
2019-Jul-11 19:30N 49°17' W 124°03'714.5
2019-Jul-11 19:00N 49°21' W 124°12'714.4
2019-Jul-11 18:30N 49°25' W 124°21'714.5
2019-Jul-11 18:00N 49°30' W 124°30'115.5 050 / 41020.010.8 17.013.513.0
2019-Jul-11 17:55N 49°31' W 124°31'615.2
2019-Jul-11 17:30N 49°36' W 124°37'815.6
2019-Jul-11 17:00N 49°42' W 124°45'815.2
2019-Jul-11 16:31N 49°47' W 124°53'815.6
2019-Jul-11 16:00N 49°53' W 125°02'815.8
2019-Jul-11 15:30N 49°58' W 125°10'612.4
2019-Jul-11 15:00N 50°04' W 125°15'610.9
2019-Jul-11 14:30N 50°08' W 125°21'611.7
2019-Jul-11 14:00N 50°13' W 125°23'3262.4
2019-Jul-11 14:00N 50°12' W 125°18'918.1 1020.0 0.0 14.0
2019-Jul-11 13:30N 50°19' W 125°25'1312.0
2019-Jul-11 12:24N 50°22' W 125°46'4912.8
2019-Jul-11 08:35N 50°42' W 126°57'2315.0
2019-Jul-11 07:03N 50°51' W 127°30'114.0
2019-Jul-11 07:00N 50°51' W 127°31'4280.1
2019-Jul-11 07:00N 50°48' W 127°36'816.0 120 / 101018.010.8 13.011.112.0
2019-Jul-11 06:30N 50°55' W 127°40'714.3
2019-Jul-11 06:01N 50°60' W 127°49'510.5
2019-Jul-11 05:31N 51°02' W 127°56'713.2
2019-Jul-11 05:00N 51°06' W 128°05'032.1
2019-Jul-11 05:00N 51°06' W 128°06'612.8 190 / 61017.010.8 14.012.212.0
2019-Jul-11 04:30N 51°09' W 128°14'714.4
2019-Jul-11 04:01N 51°14' W 128°23'714.6
2019-Jul-11 03:30N 51°19' W 128°32'714.4
2019-Jul-11 03:00N 51°23' W 128°41'714.8
2019-Jul-11 02:30N 51°28' W 128°50'815.3
2019-Jul-11 02:00N 51°36' W 128°52'2147.9
2019-Jul-11 02:00N 51°36' W 128°48'918.8 180 / 1801014.0 2.2 14.0
2019-Jul-11 01:30N 51°43' W 128°57'917.3
2019-Jul-11 01:00N 51°50' W 129°05'917.1
2019-Jul-11 00:30N 51°57' W 129°14'917.3
2019-Jul-10 23:59N 52°04' W 129°24'8617.1
2019-Jul-10 18:58N 53°17' W 130°38'1018.1
2019-Jul-10 18:24N 53°25' W 130°46'1018.1
2019-Jul-10 17:50N 53°35' W 130°54'618.2
2019-Jul-10 17:30N 53°40' W 130°57'918.0
2019-Jul-10 17:00N 53°48' W 131°03'918.1
2019-Jul-10 16:30N 53°57' W 131°10'917.7
2019-Jul-10 16:00N 54°05' W 131°16'917.5
2019-Jul-10 15:30N 54°13' W 131°22'917.2
2019-Jul-10 15:01N 54°20' W 131°30'2118.9
2019-Jul-10 15:00N 54°18' W 131°30'1020.6 320 / 81011.010.8 15.0
2019-Jul-10 14:30N 54°24' W 131°44'1818.4
2019-Jul-10 13:32N 54°29' W 132°13'117.4
2019-Jul-10 13:31N 54°29' W 132°14'1218.3
2019-Jul-10 12:51N 54°32' W 132°34'4515.8
2019-Jul-10 10:00N 55°00' W 133°36'2727.3 330 / 101013.010.8 14.0 8.0
2019-Jul-10 09:00N 55°18' W 134°12'1818.2 320 / 91014.010.8 14.010.2
2019-Jul-10 08:00N 55°30' W 134°36'4113.8 330 / 91014.010.8 14.010.212.0
2019-Jul-10 05:00N 56°06' W 135°12'2120.6 340 / 41014.010.8 15.011.312.0
2019-Jul-10 04:00N 56°24' W 135°30'117 5.8 320 / 31015.0 5.4 14.0
2019-Jul-09 08:00N 58°18' W 136°13'918.0
2019-Jul-09 07:30N 58°19' W 135°56'918.1
2019-Jul-09 07:00N 58°17' W 135°39'  
Track history (hours):
 
Tides and Currents Weather Stations Pressure Air Temp Water Temp Dewpoint Dewpoint Depression Visibility Wind Speed Wind Dir Waves Ship Positions

Azamara Quest

Last reported at 2019-Jul-19 07:00 UTC. Time now 2019-Jul-20 01:03 UTC.
Position N 58°30' W 137°48'.

Length 181 m; draft 5.9 m.

Type: Passenger vessel. MMSI: 256216000.

Wind from 140 at 9 knots

Barometer 1015.0 mb
Air temperature 15.0 ° C
Visibility: greater than 5.4 NM
Dewpoint 11.3 ° C
Water temperature 12.0 ° C

Date/timePositionNaut miles runAvg speedWind from/ knotsBaromVisibWave heightAir tempDewpointWater temp
2019-Jul-19 07:00N 58°30' W 137°48'4815.9 140 / 91015.0 5.4 15.011.312.0
2019-Jul-19 04:00N 58°12' W 136°24'926.1 090 / 21014.0 0.1 15.0
2019-Jul-19 03:38N 58°19' W 136°12'320.2
2019-Jul-19 03:30N 58°19' W 136°07'918.8
2019-Jul-19 03:00N 58°18' W 135°49'1218.5
2019-Jul-19 02:23N 58°14' W 135°29'613.3
2019-Jul-19 01:58N 58°08' W 135°27'1 0.1
2019-Jul-18 15:06N 58°09' W 135°26'1 7.6
2019-Jul-18 15:00N 58°09' W 135°25'4290.4
2019-Jul-18 15:00N 58°06' W 135°24'34 3.1 120 / 41006.0 2.2 14.0
2019-Jul-18 04:00N 58°18' W 134°24'36 2.1 110 / 121000.0 2.2 16.0
2019-Jul-17 10:44N 58°14' W 135°32'416.9
2019-Jul-17 10:30N 58°16' W 135°39'713.9
2019-Jul-17 10:00N 58°19' W 135°51'713.7
2019-Jul-17 09:30N 58°20' W 136°04'5014.1
2019-Jul-17 06:00N 57°36' W 136°48'54 3.9 160 / 121003.010.8 14.010.211.0
2019-Jul-16 16:00N 57°06' W 135°24'81 9.0 340 / 21012.0 1.1 14.0
2019-Jul-16 07:00N 55°54' W 134°18'4414.6 120 / 61017.010.8 15.013.212.0
2019-Jul-16 04:00N 56°18' W 133°12'21 1.5 150 / 71017.0 0.5 15.0
2019-Jul-15 14:00N 56°12' W 132°36'57 8.1 220 / 51019.0 2.2 16.0
2019-Jul-15 07:00N 55°24' W 131°42'18 1.1 140 / 61019.010.8 17.011.512.0
2019-Jul-14 14:00N 55°06' W 131°36'2612.0 160 / 61017.0 2.2 15.0
2019-Jul-14 11:49N 54°40' W 131°31'713.1
2019-Jul-14 11:19N 54°34' W 131°26'412.4
2019-Jul-14 11:00N 54°31' W 131°22'612.9
2019-Jul-14 10:30N 54°25' W 131°17'612.9
2019-Jul-14 10:00N 54°20' W 131°11'713.4
2019-Jul-14 09:30N 54°15' W 131°04'612.6
2019-Jul-14 09:01N 54°09' W 131°00'510.2
2019-Jul-14 08:30N 54°04' W 131°00'612.9
2019-Jul-14 08:00N 53°57' W 130°59'713.1
2019-Jul-14 07:31N 53°51' W 130°57'713.5
2019-Jul-14 07:00N 53°44' W 130°55'613.1
2019-Jul-14 06:31N 53°38' W 130°52'913.6
2019-Jul-14 05:49N 53°29' W 130°48'713.3
2019-Jul-14 05:17N 53°22' W 130°44'713.6
2019-Jul-14 04:46N 53°16' W 130°38'5815.5
2019-Jul-14 01:00N 52°24' W 129°54'2212.7 200 / 61017.010.8 18.0
2019-Jul-13 23:13N 52°07' W 129°30'414.5
2019-Jul-13 22:58N 52°04' W 129°26'715.3
2019-Jul-13 22:30N 51°59' W 129°18'815.1
2019-Jul-13 22:00N 51°53' W 129°11'714.4
2019-Jul-13 21:30N 51°48' W 129°03'714.3
2019-Jul-13 21:00N 51°42' W 128°56'714.1
2019-Jul-13 20:30N 51°36' W 128°51'714.0
2019-Jul-13 20:01N 51°29' W 128°48'714.7
2019-Jul-13 19:30N 51°23' W 128°41'714.7
2019-Jul-13 19:01N 51°18' W 128°32'815.0
2019-Jul-13 18:30N 51°14' W 128°22'815.0
2019-Jul-13 18:00N 51°09' W 128°12'5329.6
2019-Jul-13 18:00N 51°06' W 128°06'2 4.5 290 / 61016.010.8 18.012.712.0
2019-Jul-13 17:30N 51°05' W 128°03'714.5
2019-Jul-13 17:00N 51°01' W 127°53'713.0
2019-Jul-13 16:30N 50°58' W 127°45'713.3
2019-Jul-13 15:59N 50°53' W 127°36'2222.2
2019-Jul-13 15:00N 50°42' W 127°06'6 7.5 200 / 51017.0 2.2 15.0
2019-Jul-13 14:12N 50°42' W 126°57'4914.7
2019-Jul-13 10:52N 50°22' W 125°46'1315.5
2019-Jul-13 10:02N 50°20' W 125°26'212.3
2019-Jul-13 09:52N 50°18' W 125°25'615.3
2019-Jul-13 09:29N 50°13' W 125°22'613.0
2019-Jul-13 09:00N 50°07' W 125°19'612.8
2019-Jul-13 08:31N 50°02' W 125°13'5 9.9
2019-Jul-13 08:00N 49°57' W 125°09'5 9.1
2019-Jul-13 07:31N 49°54' W 125°04'611.1
2019-Jul-13 07:00N 49°51' W 124°56'6438.2
2019-Jul-13 07:00N 49°48' W 124°48'1 2.5 300 / 111015.010.8 18.012.713.0
2019-Jul-13 06:30N 49°48' W 124°50'511.0
2019-Jul-13 06:01N 49°44' W 124°44'610.8
2019-Jul-13 05:30N 49°40' W 124°37'510.6
2019-Jul-13 05:00N 49°37' W 124°31'4649.5
2019-Jul-13 05:00N 49°36' W 124°36'917.3 100 / 61015.010.8 20.014.913.0
2019-Jul-13 04:30N 49°34' W 124°23'1011.1
2019-Jul-13 03:37N 49°30' W 124°10'110.6
2019-Jul-13 03:30N 49°29' W 124°08'611.5
2019-Jul-13 03:01N 49°27' W 124°00'611.7
2019-Jul-13 02:30N 49°25' W 123°52'612.2
2019-Jul-13 02:00N 49°23' W 123°43'612.2
2019-Jul-13 01:30N 49°21' W 123°34'612.2
2019-Jul-13 01:00N 49°19' W 123°25'5335.4
2019-Jul-13 01:00N 49°18' W 123°18'2 3.9 320 / 41016.010.8 20.0
2019-Jul-13 00:31N 49°19' W 123°16'612.2
2019-Jul-13 00:00N 49°18' W 123°07'1 1.6
2019-Jul-12 23:30N 49°17' W 123°06'0 0.1
2019-Jul-12 23:00N 49°17' W 123°06'0 0.0
2019-Jul-12 22:30N 49°17' W 123°06'0 0.0
2019-Jul-12 22:00N 49°17' W 123°06'0 0.1
2019-Jul-12 21:30N 49°17' W 123°06'0 0.0
2019-Jul-12 21:00N 49°17' W 123°06'0 0.0
2019-Jul-12 20:30N 49°17' W 123°06'0 0.0
2019-Jul-12 20:00N 49°17' W 123°06'0 0.0
2019-Jul-12 19:30N 49°17' W 123°06'0 0.0
2019-Jul-12 19:00N 49°17' W 123°06'0 0.0
2019-Jul-12 18:30N 49°17' W 123°06'0 0.0
2019-Jul-12 18:00N 49°17' W 123°06'0 0.0
2019-Jul-12 17:30N 49°17' W 123°06'0 0.0
2019-Jul-12 16:57N 49°17' W 123°06'0 0.0
2019-Jul-12 16:30N 49°17' W 123°06'0 0.0
2019-Jul-12 16:00N 49°17' W 123°06'0 0.0
2019-Jul-12 15:30N 49°17' W 123°06'0 0.0
2019-Jul-12 15:00N 49°17' W 123°06'0 0.0
2019-Jul-12 14:30N 49°17' W 123°06'0 0.0
2019-Jul-12 14:00N 49°17' W 123°06'0 0.0
2019-Jul-12 13:30N 49°17' W 123°06'2 4.0
2019-Jul-12 13:00N 49°19' W 123°08'4 8.7
2019-Jul-12 12:31N 49°19' W 123°15'510.7
2019-Jul-12 12:01N 49°19' W 123°23'510.3
2019-Jul-12 11:30N 49°19' W 123°31'5 9.4
2019-Jul-12 11:00N 49°19' W 123°38'5 9.4
2019-Jul-12 10:31N 49°19' W 123°46'5 9.1
2019-Jul-12 10:00N 49°21' W 123°52'1 2.6
2019-Jul-12 09:30N 49°21' W 123°50'4 7.2
2019-Jul-12 09:00N 49°22' W 123°55'3 5.2
2019-Jul-12 08:30N 49°22' W 123°59'3 5.9
2019-Jul-12 08:00N 49°22' W 123°55'3 6.4
2019-Jul-12 07:30N 49°21' W 123°50'4 8.4
2019-Jul-12 07:00N 49°17' W 123°52'4 8.6
2019-Jul-12 06:31N 49°12' W 123°53'3 6.2
2019-Jul-12 06:01N 49°10' W 123°55'4 1.3
2019-Jul-12 03:00N 49°06' W 123°54'4 0.7 160 / 61019.010.8 17.0
2019-Jul-11 21:08N 49°10' W 123°55'0 0.0
2019-Jul-11 20:56N 49°10' W 123°55'0 1.1
2019-Jul-11 20:30N 49°10' W 123°55'4 8.0
2019-Jul-11 20:00N 49°14' W 123°55'612.5
2019-Jul-11 19:30N 49°17' W 124°03'714.5
2019-Jul-11 19:00N 49°21' W 124°12'714.4
2019-Jul-11 18:30N 49°25' W 124°21'714.5
2019-Jul-11 18:00N 49°30' W 124°30'115.5 050 / 41020.010.8 17.013.513.0
2019-Jul-11 17:55N 49°31' W 124°31'615.2
2019-Jul-11 17:30N 49°36' W 124°37'815.6
2019-Jul-11 17:00N 49°42' W 124°45'815.2
2019-Jul-11 16:31N 49°47' W 124°53'815.6
2019-Jul-11 16:00N 49°53' W 125°02'815.8
2019-Jul-11 15:30N 49°58' W 125°10'612.4
2019-Jul-11 15:00N 50°04' W 125°15'610.9
2019-Jul-11 14:30N 50°08' W 125°21'611.7
2019-Jul-11 14:00N 50°13' W 125°23'3262.4
2019-Jul-11 14:00N 50°12' W 125°18'918.1 1020.0 0.0 14.0
2019-Jul-11 13:30N 50°19' W 125°25'1312.0
2019-Jul-11 12:24N 50°22' W 125°46'4912.8
2019-Jul-11 08:35N 50°42' W 126°57'2315.0
2019-Jul-11 07:03N 50°51' W 127°30'114.0
2019-Jul-11 07:00N 50°51' W 127°31'4280.1
2019-Jul-11 07:00N 50°48' W 127°36'816.0 120 / 101018.010.8 13.011.112.0
2019-Jul-11 06:30N 50°55' W 127°40'714.3
2019-Jul-11 06:01N 50°60' W 127°49'510.5
2019-Jul-11 05:31N 51°02' W 127°56'713.2
2019-Jul-11 05:00N 51°06' W 128°05'032.1
2019-Jul-11 05:00N 51°06' W 128°06'612.8 190 / 61017.010.8 14.012.212.0
2019-Jul-11 04:30N 51°09' W 128°14'714.4
2019-Jul-11 04:01N 51°14' W 128°23'714.6
2019-Jul-11 03:30N 51°19' W 128°32'714.4
2019-Jul-11 03:00N 51°23' W 128°41'714.8
2019-Jul-11 02:30N 51°28' W 128°50'815.3
2019-Jul-11 02:00N 51°36' W 128°52'2147.9
2019-Jul-11 02:00N 51°36' W 128°48'918.8 180 / 1801014.0 2.2 14.0
2019-Jul-11 01:30N 51°43' W 128°57'917.3
2019-Jul-11 01:00N 51°50' W 129°05'917.1
2019-Jul-11 00:30N 51°57' W 129°14'917.3
2019-Jul-10 23:59N 52°04' W 129°24'8617.1
2019-Jul-10 18:58N 53°17' W 130°38'1018.1
2019-Jul-10 18:24N 53°25' W 130°46'1018.1
2019-Jul-10 17:50N 53°35' W 130°54'618.2
2019-Jul-10 17:30N 53°40' W 130°57'918.0
2019-Jul-10 17:00N 53°48' W 131°03'918.1
2019-Jul-10 16:30N 53°57' W 131°10'917.7
2019-Jul-10 16:00N 54°05' W 131°16'917.5
2019-Jul-10 15:30N 54°13' W 131°22'917.2
2019-Jul-10 15:01N 54°20' W 131°30'2118.9
2019-Jul-10 15:00N 54°18' W 131°30'1020.6 320 / 81011.010.8 15.0
2019-Jul-10 14:30N 54°24' W 131°44'1818.4
2019-Jul-10 13:32N 54°29' W 132°13'117.4
2019-Jul-10 13:31N 54°29' W 132°14'1218.3
2019-Jul-10 12:51N 54°32' W 132°34'4515.8
2019-Jul-10 10:00N 55°00' W 133°36'2727.3 330 / 101013.010.8 14.0 8.0
2019-Jul-10 09:00N 55°18' W 134°12'1818.2 320 / 91014.010.8 14.010.2
2019-Jul-10 08:00N 55°30' W 134°36'4113.8 330 / 91014.010.8 14.010.212.0
2019-Jul-10 05:00N 56°06' W 135°12'2120.6 340 / 41014.010.8 15.011.312.0
2019-Jul-10 04:00N 56°24' W 135°30'117 5.8 320 / 31015.0 5.4 14.0
2019-Jul-09 08:00N 58°18' W 136°13'918.0
2019-Jul-09 07:30N 58°19' W 135°56'918.1
2019-Jul-09 07:00N 58°17' W 135°39'  

Dump ship's entire track history